This is the latest recevied weather packets stored in our database for station/object IW5CI-13. If no packets are shown the sender has not sent any weather packets the latest 10 day(s).
| Time | Temp. | Humidity | Pressure | Rain* | Wind** | Luminosity | Snow |
|---|---|---|---|---|---|---|---|
| 1777698498 | 9.44° C | 25% | 1026.4 hPa | - | - | - | - |
| 1777697295 | 9.44° C | 25% | 1026.2 hPa | - | - | - | - |
| 1777696091 | 8.89° C | 26% | 1026.1 hPa | - | - | - | - |
| 1777694888 | 8.89° C | 25% | 1026.1 hPa | - | - | - | - |
| 1777692481 | 8.89° C | 25% | 1026 hPa | - | - | - | - |
| 1777691277 | 10° C | 24% | 1026 hPa | - | - | - | - |
| 1777690074 | 10° C | 23% | 1026 hPa | - | - | - | - |
| 1777687667 | 10° C | 23% | 1026.3 hPa | - | - | - | - |
| 1777686464 | 10.56° C | 22% | 1026.2 hPa | - | - | - | - |
| 1777685260 | 10° C | 22% | 1026.3 hPa | - | - | - | - |
| 1777684057 | 10° C | 22% | 1026.4 hPa | - | - | - | - |
| 1777682853 | 8.33° C | 24% | 1026.4 hPa | - | - | - | - |
| 1777681649 | 10.56° C | 21% | 1026.3 hPa | - | - | - | - |
| 1777680445 | 10.56° C | 22% | 1026.4 hPa | - | - | - | - |
| 1777679241 | 10.56° C | 21% | 1026.4 hPa | - | - | - | - |
| 1777678037 | 10.56° C | 21% | 1026.3 hPa | - | - | - | - |
| 1777676833 | 11.67° C | 19% | 1026.3 hPa | - | - | - | - |
| 1777675629 | 10° C | 21% | 1026.2 hPa | - | - | - | - |
| 1777674426 | 11.11° C | 20% | 1026 hPa | - | - | - | - |
| 1777672017 | 12.22° C | 17% | 1025.8 hPa | - | - | - | - |
| 1777670813 | 13.33° C | 16% | 1025.8 hPa | - | - | - | - |
| 1777669609 | 13.33° C | 16% | 1025.7 hPa | - | - | - | - |
| 1777668405 | 13.33° C | 15% | 1025.6 hPa | - | - | - | - |
| 1777667201 | 13.89° C | 15% | 1025.6 hPa | - | - | - | - |
| 1777665998 | 13.89° C | 15% | 1025.4 hPa | - | - | - | - |
* Rain since midnight (hover to see other rain measurements)
** Current wind speed in m/s (hover to see current wind gust speed)